sensor_id;sensor_type;location;lat;lon;timestamp;P1;durP1;ratioP1;P2;durP2;ratioP2
18435;SDS011;9346;52.006;4.720;2022-07-05T00:02:21;5.20;;;4.10;;
18435;SDS011;9346;52.006;4.720;2022-07-05T00:04:48;6.87;;;5.40;;
18435;SDS011;9346;52.006;4.720;2022-07-05T00:07:17;5.83;;;4.73;;
18435;SDS011;9346;52.006;4.720;2022-07-05T00:09:44;6.20;;;4.77;;
18435;SDS011;9346;52.006;4.720;2022-07-05T00:12:11;6.80;;;5.57;;
18435;SDS011;9346;52.006;4.720;2022-07-05T00:14:39;6.85;;;5.25;;
18435;SDS011;9346;52.006;4.720;2022-07-05T00:17:06;5.37;;;4.50;;
18435;SDS011;9346;52.006;4.720;2022-07-05T00:19:33;7.17;;;5.27;;
18435;SDS011;9346;52.006;4.720;2022-07-05T00:22:00;7.93;;;5.40;;
18435;SDS011;9346;52.006;4.720;2022-07-05T00:24:29;5.40;;;4.37;;
18435;SDS011;9346;52.006;4.720;2022-07-05T00:26:56;7.57;;;5.30;;
18435;SDS011;9346;52.006;4.720;2022-07-05T00:29:23;5.87;;;4.13;;
18435;SDS011;9346;52.006;4.720;2022-07-05T00:31:50;5.73;;;5.10;;
18435;SDS011;9346;52.006;4.720;2022-07-05T00:34:17;8.47;;;5.07;;
18435;SDS011;9346;52.006;4.720;2022-07-05T00:36:44;8.30;;;6.17;;
18435;SDS011;9346;52.006;4.720;2022-07-05T00:39:12;7.87;;;5.77;;
18435;SDS011;9346;52.006;4.720;2022-07-05T00:41:40;6.53;;;5.30;;
18435;SDS011;9346;52.006;4.720;2022-07-05T00:44:08;7.20;;;5.27;;
18435;SDS011;9346;52.006;4.720;2022-07-05T00:46:37;6.03;;;4.87;;
18435;SDS011;9346;52.006;4.720;2022-07-05T00:49:05;5.83;;;4.83;;
18435;SDS011;9346;52.006;4.720;2022-07-05T00:51:33;5.80;;;4.20;;
18435;SDS011;9346;52.006;4.720;2022-07-05T00:54:02;5.20;;;4.50;;
18435;SDS011;9346;52.006;4.720;2022-07-05T00:56:32;5.67;;;4.70;;
18435;SDS011;9346;52.006;4.720;2022-07-05T00:59:00;7.03;;;4.70;;
18435;SDS011;9346;52.006;4.720;2022-07-05T01:01:28;6.50;;;5.10;;
18435;SDS011;9346;52.006;4.720;2022-07-05T01:03:55;5.20;;;4.70;;
18435;SDS011;9346;52.006;4.720;2022-07-05T01:06:22;7.30;;;5.37;;
18435;SDS011;9346;52.006;4.720;2022-07-05T01:08:49;6.53;;;5.10;;
18435;SDS011;9346;52.006;4.720;2022-07-05T01:11:17;7.50;;;5.57;;
18435;SDS011;9346;52.006;4.720;2022-07-05T01:13:44;7.93;;;5.57;;
18435;SDS011;9346;52.006;4.720;2022-07-05T01:16:12;7.07;;;5.20;;
18435;SDS011;9346;52.006;4.720;2022-07-05T01:18:39;7.20;;;5.80;;
18435;SDS011;9346;52.006;4.720;2022-07-05T01:21:07;7.60;;;6.63;;
18435;SDS011;9346;52.006;4.720;2022-07-05T01:23:36;7.37;;;6.53;;
18435;SDS011;9346;52.006;4.720;2022-07-05T01:26:03;7.40;;;5.20;;
18435;SDS011;9346;52.006;4.720;2022-07-05T01:28:30;6.57;;;5.87;;
18435;SDS011;9346;52.006;4.720;2022-07-05T01:30:57;8.13;;;5.47;;
18435;SDS011;9346;52.006;4.720;2022-07-05T01:33:27;7.80;;;5.80;;
18435;SDS011;9346;52.006;4.720;2022-07-05T01:35:54;6.53;;;5.43;;
18435;SDS011;9346;52.006;4.720;2022-07-05T01:38:21;7.03;;;6.30;;
18435;SDS011;9346;52.006;4.720;2022-07-05T01:40:50;7.17;;;5.77;;
18435;SDS011;9346;52.006;4.720;2022-07-05T01:43:17;6.60;;;5.83;;
18435;SDS011;9346;52.006;4.720;2022-07-05T01:45:45;7.70;;;5.67;;
18435;SDS011;9346;52.006;4.720;2022-07-05T01:48:14;6.93;;;6.10;;
18435;SDS011;9346;52.006;4.720;2022-07-05T01:50:44;6.07;;;5.27;;
18435;SDS011;9346;52.006;4.720;2022-07-05T01:53:14;8.07;;;5.73;;
18435;SDS011;9346;52.006;4.720;2022-07-05T01:55:44;7.70;;;6.33;;
18435;SDS011;9346;52.006;4.720;2022-07-05T01:58:13;9.20;;;6.40;;
18435;SDS011;9346;52.006;4.720;2022-07-05T02:00:44;8.93;;;6.40;;
18435;SDS011;9346;52.006;4.720;2022-07-05T02:03:11;7.47;;;6.20;;
18435;SDS011;9346;52.006;4.720;2022-07-05T02:05:39;10.53;;;6.80;;
18435;SDS011;9346;52.006;4.720;2022-07-05T02:08:07;7.90;;;7.10;;
18435;SDS011;9346;52.006;4.720;2022-07-05T02:10:34;10.80;;;7.10;;
18435;SDS011;9346;52.006;4.720;2022-07-05T02:13:01;10.10;;;7.27;;
18435;SDS011;9346;52.006;4.720;2022-07-05T02:15:31;8.87;;;6.80;;
18435;SDS011;9346;52.006;4.720;2022-07-05T02:17:58;10.07;;;7.17;;
18435;SDS011;9346;52.006;4.720;2022-07-05T02:20:25;8.00;;;6.87;;
18435;SDS011;9346;52.006;4.720;2022-07-05T02:22:52;13.50;;;7.07;;
18435;SDS011;9346;52.006;4.720;2022-07-05T02:25:19;9.27;;;7.20;;
18435;SDS011;9346;52.006;4.720;2022-07-05T02:27:47;9.63;;;6.90;;
18435;SDS011;9346;52.006;4.720;2022-07-05T02:30:14;10.37;;;7.93;;
18435;SDS011;9346;52.006;4.720;2022-07-05T02:32:43;12.53;;;8.93;;
18435;SDS011;9346;52.006;4.720;2022-07-05T02:35:11;10.33;;;7.00;;
18435;SDS011;9346;52.006;4.720;2022-07-05T02:37:38;10.57;;;7.73;;
18435;SDS011;9346;52.006;4.720;2022-07-05T02:40:06;10.97;;;8.67;;
18435;SDS011;9346;52.006;4.720;2022-07-05T02:42:35;9.47;;;7.30;;
18435;SDS011;9346;52.006;4.720;2022-07-05T02:45:03;11.50;;;8.50;;
18435;SDS011;9346;52.006;4.720;2022-07-05T02:47:30;10.73;;;7.07;;
18435;SDS011;9346;52.006;4.720;2022-07-05T02:49:59;13.33;;;8.30;;
18435;SDS011;9346;52.006;4.720;2022-07-05T02:52:29;9.17;;;7.07;;
18435;SDS011;9346;52.006;4.720;2022-07-05T02:54:56;11.90;;;8.93;;
18435;SDS011;9346;52.006;4.720;2022-07-05T02:57:23;10.63;;;7.83;;
18435;SDS011;9346;52.006;4.720;2022-07-05T02:59:52;12.87;;;7.87;;
18435;SDS011;9346;52.006;4.720;2022-07-05T03:02:19;11.80;;;8.73;;
18435;SDS011;9346;52.006;4.720;2022-07-05T03:04:45;10.93;;;7.50;;
18435;SDS011;9346;52.006;4.720;2022-07-05T03:07:14;10.70;;;7.93;;
18435;SDS011;9346;52.006;4.720;2022-07-05T03:09:41;9.13;;;6.93;;
18435;SDS011;9346;52.006;4.720;2022-07-05T03:12:08;10.53;;;7.70;;
18435;SDS011;9346;52.006;4.720;2022-07-05T03:14:35;12.70;;;7.23;;
18435;SDS011;9346;52.006;4.720;2022-07-05T03:17:02;11.47;;;8.17;;
18435;SDS011;9346;52.006;4.720;2022-07-05T03:19:29;14.33;;;7.93;;
18435;SDS011;9346;52.006;4.720;2022-07-05T03:21:55;10.00;;;7.57;;
18435;SDS011;9346;52.006;4.720;2022-07-05T03:24:24;12.23;;;7.97;;
18435;SDS011;9346;52.006;4.720;2022-07-05T03:26:51;11.63;;;8.20;;
18435;SDS011;9346;52.006;4.720;2022-07-05T03:29:17;10.17;;;7.67;;
18435;SDS011;9346;52.006;4.720;2022-07-05T03:31:44;8.47;;;7.13;;
18435;SDS011;9346;52.006;4.720;2022-07-05T03:34:11;11.23;;;7.23;;
18435;SDS011;9346;52.006;4.720;2022-07-05T03:36:38;8.97;;;6.73;;
18435;SDS011;9346;52.006;4.720;2022-07-05T03:39:05;9.90;;;7.53;;
18435;SDS011;9346;52.006;4.720;2022-07-05T03:41:34;10.47;;;7.33;;
18435;SDS011;9346;52.006;4.720;2022-07-05T03:44:01;10.83;;;8.03;;
18435;SDS011;9346;52.006;4.720;2022-07-05T03:46:28;11.57;;;8.17;;
18435;SDS011;9346;52.006;4.720;2022-07-05T03:48:55;9.70;;;7.53;;
18435;SDS011;9346;52.006;4.720;2022-07-05T03:51:22;9.87;;;7.60;;
18435;SDS011;9346;52.006;4.720;2022-07-05T03:53:49;9.93;;;7.50;;
18435;SDS011;9346;52.006;4.720;2022-07-05T03:56:15;11.90;;;7.97;;
18435;SDS011;9346;52.006;4.720;2022-07-05T03:58:47;11.93;;;7.50;;
18435;SDS011;9346;52.006;4.720;2022-07-05T04:01:14;11.90;;;8.17;;
18435;SDS011;9346;52.006;4.720;2022-07-05T04:03:41;11.70;;;8.67;;
18435;SDS011;9346;52.006;4.720;2022-07-05T04:06:08;11.33;;;8.13;;
18435;SDS011;9346;52.006;4.720;2022-07-05T04:08:35;13.00;;;8.63;;
18435;SDS011;9346;52.006;4.720;2022-07-05T04:11:02;12.10;;;8.47;;
18435;SDS011;9346;52.006;4.720;2022-07-05T04:13:29;14.53;;;9.27;;
18435;SDS011;9346;52.006;4.720;2022-07-05T04:15:57;12.10;;;8.57;;
18435;SDS011;9346;52.006;4.720;2022-07-05T04:18:24;13.30;;;8.60;;
18435;SDS011;9346;52.006;4.720;2022-07-05T04:20:51;11.00;;;8.27;;
18435;SDS011;9346;52.006;4.720;2022-07-05T04:23:18;13.23;;;8.03;;
18435;SDS011;9346;52.006;4.720;2022-07-05T04:25:44;11.43;;;8.30;;
18435;SDS011;9346;52.006;4.720;2022-07-05T04:28:11;11.63;;;8.30;;
18435;SDS011;9346;52.006;4.720;2022-07-05T04:30:38;11.47;;;8.87;;
18435;SDS011;9346;52.006;4.720;2022-07-05T04:33:07;13.43;;;9.03;;
18435;SDS011;9346;52.006;4.720;2022-07-05T04:35:35;12.97;;;8.77;;
18435;SDS011;9346;52.006;4.720;2022-07-05T04:38:02;13.30;;;10.17;;
18435;SDS011;9346;52.006;4.720;2022-07-05T04:40:28;13.03;;;10.20;;
18435;SDS011;9346;52.006;4.720;2022-07-05T04:42:55;14.30;;;10.13;;
18435;SDS011;9346;52.006;4.720;2022-07-05T04:45:22;13.53;;;9.83;;
18435;SDS011;9346;52.006;4.720;2022-07-05T04:47:50;15.13;;;9.70;;
18435;SDS011;9346;52.006;4.720;2022-07-05T04:50:18;16.27;;;10.27;;
18435;SDS011;9346;52.006;4.720;2022-07-05T04:52:45;14.30;;;10.20;;
18435;SDS011;9346;52.006;4.720;2022-07-05T04:55:12;14.27;;;9.83;;
18435;SDS011;9346;52.006;4.720;2022-07-05T04:57:39;14.50;;;9.93;;
18435;SDS011;9346;52.006;4.720;2022-07-05T05:00:08;12.73;;;10.03;;
18435;SDS011;9346;52.006;4.720;2022-07-05T05:02:36;13.67;;;10.27;;
18435;SDS011;9346;52.006;4.720;2022-07-05T05:05:03;18.17;;;11.73;;
18435;SDS011;9346;52.006;4.720;2022-07-05T05:07:33;19.47;;;11.43;;
18435;SDS011;9346;52.006;4.720;2022-07-05T05:10:02;14.10;;;10.53;;
18435;SDS011;9346;52.006;4.720;2022-07-05T05:12:30;12.47;;;9.47;;
18435;SDS011;9346;52.006;4.720;2022-07-05T05:14:57;14.00;;;10.00;;
18435;SDS011;9346;52.006;4.720;2022-07-05T05:17:24;13.77;;;9.87;;
18435;SDS011;9346;52.006;4.720;2022-07-05T05:19:51;14.33;;;9.53;;
18435;SDS011;9346;52.006;4.720;2022-07-05T05:25:41;13.00;;;9.30;;
18435;SDS011;9346;52.006;4.720;2022-07-05T05:28:08;16.87;;;8.97;;
18435;SDS011;9346;52.006;4.720;2022-07-05T05:30:35;13.07;;;9.60;;
18435;SDS011;9346;52.006;4.720;2022-07-05T05:33:02;12.67;;;9.33;;
18435;SDS011;9346;52.006;4.720;2022-07-05T05:35:29;13.30;;;8.97;;
18435;SDS011;9346;52.006;4.720;2022-07-05T05:37:56;20.00;;;10.63;;
18435;SDS011;9346;52.006;4.720;2022-07-05T05:40:23;14.47;;;9.13;;
18435;SDS011;9346;52.006;4.720;2022-07-05T05:42:54;13.30;;;9.67;;
18435;SDS011;9346;52.006;4.720;2022-07-05T05:45:21;13.73;;;9.33;;
18435;SDS011;9346;52.006;4.720;2022-07-05T05:47:49;10.43;;;7.40;;
18435;SDS011;9346;52.006;4.720;2022-07-05T05:50:17;8.30;;;6.53;;
18435;SDS011;9346;52.006;4.720;2022-07-05T05:52:45;9.97;;;6.03;;
18435;SDS011;9346;52.006;4.720;2022-07-05T05:55:11;8.47;;;6.70;;
18435;SDS011;9346;52.006;4.720;2022-07-05T05:57:38;11.17;;;5.57;;
18435;SDS011;9346;52.006;4.720;2022-07-05T06:00:09;6.73;;;5.10;;
18435;SDS011;9346;52.006;4.720;2022-07-05T06:02:36;6.90;;;5.30;;
18435;SDS011;9346;52.006;4.720;2022-07-05T06:05:04;4.93;;;4.33;;
18435;SDS011;9346;52.006;4.720;2022-07-05T06:07:31;5.83;;;4.60;;
18435;SDS011;9346;52.006;4.720;2022-07-05T06:10:08;6.07;;;4.67;;
18435;SDS011;9346;52.006;4.720;2022-07-05T06:12:35;5.07;;;3.80;;
18435;SDS011;9346;52.006;4.720;2022-07-05T06:15:03;4.00;;;3.57;;
18435;SDS011;9346;52.006;4.720;2022-07-05T06:17:36;4.97;;;3.03;;
18435;SDS011;9346;52.006;4.720;2022-07-05T06:20:04;3.90;;;3.00;;
18435;SDS011;9346;52.006;4.720;2022-07-05T06:22:33;3.80;;;3.07;;
18435;SDS011;9346;52.006;4.720;2022-07-05T06:24:59;3.53;;;3.00;;
18435;SDS011;9346;52.006;4.720;2022-07-05T06:27:26;3.90;;;2.80;;
18435;SDS011;9346;52.006;4.720;2022-07-05T06:29:53;3.97;;;2.60;;
18435;SDS011;9346;52.006;4.720;2022-07-05T06:32:20;5.40;;;3.00;;
18435;SDS011;9346;52.006;4.720;2022-07-05T06:34:49;2.30;;;2.10;;
18435;SDS011;9346;52.006;4.720;2022-07-05T06:37:16;4.80;;;2.57;;
18435;SDS011;9346;52.006;4.720;2022-07-05T06:39:43;3.87;;;1.83;;
18435;SDS011;9346;52.006;4.720;2022-07-05T06:42:10;2.10;;;1.77;;
18435;SDS011;9346;52.006;4.720;2022-07-05T06:44:37;2.67;;;1.90;;
18435;SDS011;9346;52.006;4.720;2022-07-05T06:47:03;1.40;;;1.30;;
18435;SDS011;9346;52.006;4.720;2022-07-05T06:49:30;1.63;;;1.53;;
18435;SDS011;9346;52.006;4.720;2022-07-05T06:51:59;1.30;;;1.20;;
18435;SDS011;9346;52.006;4.720;2022-07-05T06:54:26;3.43;;;1.17;;
18435;SDS011;9346;52.006;4.720;2022-07-05T06:56:52;1.27;;;1.17;;
18435;SDS011;9346;52.006;4.720;2022-07-05T06:59:20;2.80;;;1.10;;
18435;SDS011;9346;52.006;4.720;2022-07-05T07:01:47;1.57;;;1.00;;
18435;SDS011;9346;52.006;4.720;2022-07-05T07:04:14;1.13;;;1.00;;
18435;SDS011;9346;52.006;4.720;2022-07-05T07:06:41;2.73;;;0.90;;
18435;SDS011;9346;52.006;4.720;2022-07-05T07:09:09;2.87;;;1.50;;
18435;SDS011;9346;52.006;4.720;2022-07-05T07:11:45;1.10;;;0.90;;
18435;SDS011;9346;52.006;4.720;2022-07-05T07:14:13;1.70;;;1.10;;
18435;SDS011;9346;52.006;4.720;2022-07-05T07:16:40;5.23;;;1.10;;
18435;SDS011;9346;52.006;4.720;2022-07-05T07:19:06;2.97;;;0.90;;
18435;SDS011;9346;52.006;4.720;2022-07-05T07:21:33;1.13;;;0.97;;
18435;SDS011;9346;52.006;4.720;2022-07-05T07:24:00;0.70;;;0.67;;
18435;SDS011;9346;52.006;4.720;2022-07-05T07:26:29;1.33;;;0.93;;
18435;SDS011;9346;52.006;4.720;2022-07-05T07:29:16;1.80;;;0.80;;
18435;SDS011;9346;52.006;4.720;2022-07-05T07:31:42;4.57;;;0.97;;
18435;SDS011;9346;52.006;4.720;2022-07-05T07:34:09;0.63;;;0.63;;
18435;SDS011;9346;52.006;4.720;2022-07-05T07:36:36;2.17;;;0.90;;
18435;SDS011;9346;52.006;4.720;2022-07-05T07:39:03;0.73;;;0.73;;
18435;SDS011;9346;52.006;4.720;2022-07-05T07:41:32;1.63;;;1.00;;
18435;SDS011;9346;52.006;4.720;2022-07-05T07:43:59;0.60;;;0.60;;
18435;SDS011;9346;52.006;4.720;2022-07-05T07:46:26;1.10;;;1.00;;
18435;SDS011;9346;52.006;4.720;2022-07-05T07:48:53;1.60;;;0.90;;
18435;SDS011;9346;52.006;4.720;2022-07-05T07:51:20;1.30;;;0.90;;
18435;SDS011;9346;52.006;4.720;2022-07-05T07:53:47;0.93;;;0.90;;
18435;SDS011;9346;52.006;4.720;2022-07-05T07:56:14;2.97;;;1.67;;
18435;SDS011;9346;52.006;4.720;2022-07-05T07:58:42;1.67;;;1.00;;
18435;SDS011;9346;52.006;4.720;2022-07-05T08:01:09;1.20;;;0.73;;
18435;SDS011;9346;52.006;4.720;2022-07-05T08:03:38;0.70;;;0.70;;
18435;SDS011;9346;52.006;4.720;2022-07-05T08:06:05;0.97;;;0.80;;
18435;SDS011;9346;52.006;4.720;2022-07-05T08:08:33;1.37;;;0.97;;
18435;SDS011;9346;52.006;4.720;2022-07-05T08:10:59;4.87;;;1.00;;
18435;SDS011;9346;52.006;4.720;2022-07-05T08:13:26;1.47;;;0.83;;
18435;SDS011;9346;52.006;4.720;2022-07-05T08:15:54;1.30;;;0.80;;
18435;SDS011;9346;52.006;4.720;2022-07-05T08:18:21;1.07;;;0.87;;
18435;SDS011;9346;52.006;4.720;2022-07-05T08:21:06;0.80;;;0.70;;
18435;SDS011;9346;52.006;4.720;2022-07-05T08:23:50;1.47;;;0.80;;
18435;SDS011;9346;52.006;4.720;2022-07-05T08:26:16;0.93;;;0.57;;
18435;SDS011;9346;52.006;4.720;2022-07-05T08:28:43;1.33;;;0.70;;
18435;SDS011;9346;52.006;4.720;2022-07-05T08:31:12;2.00;;;0.60;;
18435;SDS011;9346;52.006;4.720;2022-07-05T08:33:39;2.13;;;0.70;;
18435;SDS011;9346;52.006;4.720;2022-07-05T08:36:08;1.30;;;0.70;;
18435;SDS011;9346;52.006;4.720;2022-07-05T08:38:35;2.57;;;0.90;;
18435;SDS011;9346;52.006;4.720;2022-07-05T08:41:02;0.70;;;0.70;;
18435;SDS011;9346;52.006;4.720;2022-07-05T08:43:33;3.70;;;1.07;;
18435;SDS011;9346;52.006;4.720;2022-07-05T08:46:03;0.97;;;0.70;;
18435;SDS011;9346;52.006;4.720;2022-07-05T08:48:35;1.37;;;0.70;;
18435;SDS011;9346;52.006;4.720;2022-07-05T08:51:08;1.00;;;0.73;;
18435;SDS011;9346;52.006;4.720;2022-07-05T08:53:38;1.40;;;0.80;;
18435;SDS011;9346;52.006;4.720;2022-07-05T08:56:07;1.80;;;0.70;;
18435;SDS011;9346;52.006;4.720;2022-07-05T08:58:35;1.87;;;0.60;;
18435;SDS011;9346;52.006;4.720;2022-07-05T09:01:03;1.47;;;0.70;;
18435;SDS011;9346;52.006;4.720;2022-07-05T09:03:31;2.33;;;0.90;;
18435;SDS011;9346;52.006;4.720;2022-07-05T09:06:02;2.50;;;0.70;;
18435;SDS011;9346;52.006;4.720;2022-07-05T09:08:29;1.00;;;0.90;;
18435;SDS011;9346;52.006;4.720;2022-07-05T09:10:59;2.30;;;0.90;;
18435;SDS011;9346;52.006;4.720;2022-07-05T09:13:31;0.90;;;0.80;;
18435;SDS011;9346;52.006;4.720;2022-07-05T09:16:00;1.80;;;0.97;;
18435;SDS011;9346;52.006;4.720;2022-07-05T09:18:40;3.13;;;0.93;;
18435;SDS011;9346;52.006;4.720;2022-07-05T09:21:19;1.67;;;0.70;;
18435;SDS011;9346;52.006;4.720;2022-07-05T09:23:52;2.70;;;0.77;;
18435;SDS011;9346;52.006;4.720;2022-07-05T09:26:21;1.27;;;0.80;;
18435;SDS011;9346;52.006;4.720;2022-07-05T09:28:53;1.23;;;0.70;;
18435;SDS011;9346;52.006;4.720;2022-07-05T09:31:26;0.90;;;0.70;;
18435;SDS011;9346;52.006;4.720;2022-07-05T09:33:55;0.60;;;0.60;;
18435;SDS011;9346;52.006;4.720;2022-07-05T09:39:33;3.03;;;0.70;;
18435;SDS011;9346;52.006;4.720;2022-07-05T09:42:08;1.57;;;0.70;;
18435;SDS011;9346;52.006;4.720;2022-07-05T09:44:42;2.30;;;0.80;;
18435;SDS011;9346;52.006;4.720;2022-07-05T09:47:13;1.13;;;0.47;;
18435;SDS011;9346;52.006;4.720;2022-07-05T09:49:42;1.43;;;0.70;;
18435;SDS011;9346;52.006;4.720;2022-07-05T09:52:13;3.50;;;1.23;;
18435;SDS011;9346;52.006;4.720;2022-07-05T09:55:02;0.93;;;0.53;;
18435;SDS011;9346;52.006;4.720;2022-07-05T09:57:31;0.70;;;0.60;;
18435;SDS011;9346;52.006;4.720;2022-07-05T09:59:58;1.00;;;0.70;;
18435;SDS011;9346;52.006;4.720;2022-07-05T10:02:34;1.90;;;0.97;;
18435;SDS011;9346;52.006;4.720;2022-07-05T10:05:09;0.80;;;0.60;;
18435;SDS011;9346;52.006;4.720;2022-07-05T10:07:39;1.43;;;0.80;;
18435;SDS011;9346;52.006;4.720;2022-07-05T10:10:09;3.10;;;1.10;;
18435;SDS011;9346;52.006;4.720;2022-07-05T10:12:38;2.97;;;0.80;;
18435;SDS011;9346;52.006;4.720;2022-07-05T10:15:08;4.87;;;0.90;;
18435;SDS011;9346;52.006;4.720;2022-07-05T10:17:37;2.10;;;1.00;;
18435;SDS011;9346;52.006;4.720;2022-07-05T10:20:09;1.33;;;0.87;;
18435;SDS011;9346;52.006;4.720;2022-07-05T10:22:41;1.50;;;0.40;;
18435;SDS011;9346;52.006;4.720;2022-07-05T10:25:09;1.87;;;0.80;;
18435;SDS011;9346;52.006;4.720;2022-07-05T10:27:36;0.60;;;0.50;;
18435;SDS011;9346;52.006;4.720;2022-07-05T10:30:04;2.00;;;0.90;;
18435;SDS011;9346;52.006;4.720;2022-07-05T10:32:32;1.10;;;0.60;;
18435;SDS011;9346;52.006;4.720;2022-07-05T10:35:01;0.87;;;0.60;;
18435;SDS011;9346;52.006;4.720;2022-07-05T10:37:30;2.70;;;0.70;;
18435;SDS011;9346;52.006;4.720;2022-07-05T10:40:01;0.83;;;0.50;;
18435;SDS011;9346;52.006;4.720;2022-07-05T10:42:31;2.43;;;0.87;;
18435;SDS011;9346;52.006;4.720;2022-07-05T10:45:02;3.13;;;0.67;;
18435;SDS011;9346;52.006;4.720;2022-07-05T10:47:30;1.37;;;0.97;;
18435;SDS011;9346;52.006;4.720;2022-07-05T10:50:01;0.73;;;0.60;;
18435;SDS011;9346;52.006;4.720;2022-07-05T10:52:30;0.97;;;0.53;;
18435;SDS011;9346;52.006;4.720;2022-07-05T11:00:45;1.57;;;0.63;;
18435;SDS011;9346;52.006;4.720;2022-07-05T11:03:31;1.80;;;1.07;;
18435;SDS011;9346;52.006;4.720;2022-07-05T11:05:59;0.40;;;0.40;;
18435;SDS011;9346;52.006;4.720;2022-07-05T11:08:27;0.80;;;0.80;;
18435;SDS011;9346;52.006;4.720;2022-07-05T11:11:09;2.87;;;0.70;;
18435;SDS011;9346;52.006;4.720;2022-07-05T11:13:37;2.10;;;0.83;;
18435;SDS011;9346;52.006;4.720;2022-07-05T11:16:21;0.40;;;0.40;;
18435;SDS011;9346;52.006;4.720;2022-07-05T11:18:49;0.67;;;0.60;;
18435;SDS011;9346;52.006;4.720;2022-07-05T11:21:17;0.47;;;0.47;;
18435;SDS011;9346;52.006;4.720;2022-07-05T11:23:45;1.13;;;0.50;;
18435;SDS011;9346;52.006;4.720;2022-07-05T11:26:16;3.03;;;1.13;;
18435;SDS011;9346;52.006;4.720;2022-07-05T11:28:44;1.53;;;0.70;;
18435;SDS011;9346;52.006;4.720;2022-07-05T11:31:12;0.70;;;0.70;;
18435;SDS011;9346;52.006;4.720;2022-07-05T11:34:01;0.93;;;0.67;;
18435;SDS011;9346;52.006;4.720;2022-07-05T11:36:40;0.93;;;0.50;;
18435;SDS011;9346;52.006;4.720;2022-07-05T11:39:11;4.80;;;0.90;;
18435;SDS011;9346;52.006;4.720;2022-07-05T11:41:43;0.80;;;0.60;;
18435;SDS011;9346;52.006;4.720;2022-07-05T11:44:11;0.50;;;0.50;;
18435;SDS011;9346;52.006;4.720;2022-07-05T11:46:40;1.23;;;0.70;;
18435;SDS011;9346;52.006;4.720;2022-07-05T11:49:08;0.50;;;0.47;;
18435;SDS011;9346;52.006;4.720;2022-07-05T11:51:35;0.60;;;0.50;;
18435;SDS011;9346;52.006;4.720;2022-07-05T11:54:02;0.43;;;0.43;;
18435;SDS011;9346;52.006;4.720;2022-07-05T11:56:30;2.10;;;0.70;;
18435;SDS011;9346;52.006;4.720;2022-07-05T11:58:59;1.40;;;0.40;;
18435;SDS011;9346;52.006;4.720;2022-07-05T12:01:26;0.50;;;0.50;;
18435;SDS011;9346;52.006;4.720;2022-07-05T12:03:53;0.60;;;0.40;;
18435;SDS011;9346;52.006;4.720;2022-07-05T12:06:23;0.43;;;0.40;;
18435;SDS011;9346;52.006;4.720;2022-07-05T12:09:03;1.60;;;0.83;;
18435;SDS011;9346;52.006;4.720;2022-07-05T12:11:31;0.40;;;0.40;;
18435;SDS011;9346;52.006;4.720;2022-07-05T12:14:23;0.53;;;0.53;;
18435;SDS011;9346;52.006;4.720;2022-07-05T12:19:37;0.67;;;0.60;;
18435;SDS011;9346;52.006;4.720;2022-07-05T12:22:04;1.23;;;0.47;;
18435;SDS011;9346;52.006;4.720;2022-07-05T12:24:31;0.60;;;0.50;;
18435;SDS011;9346;52.006;4.720;2022-07-05T12:26:59;1.50;;;0.70;;
18435;SDS011;9346;52.006;4.720;2022-07-05T12:29:29;1.60;;;0.37;;
18435;SDS011;9346;52.006;4.720;2022-07-05T12:31:59;0.20;;;0.20;;
18435;SDS011;9346;52.006;4.720;2022-07-05T12:34:27;1.07;;;0.60;;
18435;SDS011;9346;52.006;4.720;2022-07-05T12:36:55;0.77;;;0.50;;
18435;SDS011;9346;52.006;4.720;2022-07-05T12:39:23;0.67;;;0.63;;
18435;SDS011;9346;52.006;4.720;2022-07-05T12:41:50;0.30;;;0.30;;
18435;SDS011;9346;52.006;4.720;2022-07-05T12:44:18;0.77;;;0.60;;
18435;SDS011;9346;52.006;4.720;2022-07-05T12:46:47;1.43;;;0.57;;
18435;SDS011;9346;52.006;4.720;2022-07-05T12:49:16;0.80;;;0.40;;
18435;SDS011;9346;52.006;4.720;2022-07-05T12:51:44;1.53;;;0.70;;
18435;SDS011;9346;52.006;4.720;2022-07-05T12:54:18;2.30;;;0.50;;
18435;SDS011;9346;52.006;4.720;2022-07-05T12:57:04;0.50;;;0.50;;
18435;SDS011;9346;52.006;4.720;2022-07-05T12:59:58;0.30;;;0.30;;
18435;SDS011;9346;52.006;4.720;2022-07-05T13:05:20;1.03;;;0.60;;
18435;SDS011;9346;52.006;4.720;2022-07-05T13:07:48;0.60;;;0.40;;
18435;SDS011;9346;52.006;4.720;2022-07-05T13:10:17;0.67;;;0.60;;
18435;SDS011;9346;52.006;4.720;2022-07-05T13:12:45;1.27;;;0.33;;
18435;SDS011;9346;52.006;4.720;2022-07-05T13:15:11;0.97;;;0.57;;
18435;SDS011;9346;52.006;4.720;2022-07-05T13:17:38;1.43;;;0.70;;
18435;SDS011;9346;52.006;4.720;2022-07-05T13:20:10;1.00;;;0.80;;
18435;SDS011;9346;52.006;4.720;2022-07-05T13:22:39;1.13;;;0.47;;
18435;SDS011;9346;52.006;4.720;2022-07-05T13:25:06;0.70;;;0.50;;
18435;SDS011;9346;52.006;4.720;2022-07-05T13:27:33;1.30;;;0.80;;
18435;SDS011;9346;52.006;4.720;2022-07-05T13:30:00;1.90;;;0.60;;
18435;SDS011;9346;52.006;4.720;2022-07-05T13:32:27;1.23;;;0.63;;
18435;SDS011;9346;52.006;4.720;2022-07-05T13:34:54;1.67;;;0.60;;
18435;SDS011;9346;52.006;4.720;2022-07-05T13:37:23;2.60;;;0.80;;
18435;SDS011;9346;52.006;4.720;2022-07-05T13:39:50;0.57;;;0.57;;
18435;SDS011;9346;52.006;4.720;2022-07-05T13:42:17;0.80;;;0.60;;
18435;SDS011;9346;52.006;4.720;2022-07-05T13:44:44;1.23;;;0.50;;
18435;SDS011;9346;52.006;4.720;2022-07-05T13:47:10;2.87;;;0.60;;
18435;SDS011;9346;52.006;4.720;2022-07-05T13:49:37;0.50;;;0.50;;
18435;SDS011;9346;52.006;4.720;2022-07-05T13:52:07;1.93;;;0.70;;
18435;SDS011;9346;52.006;4.720;2022-07-05T13:54:36;0.70;;;0.70;;
18435;SDS011;9346;52.006;4.720;2022-07-05T13:57:04;1.87;;;0.60;;
18435;SDS011;9346;52.006;4.720;2022-07-05T13:59:31;1.17;;;0.70;;
18435;SDS011;9346;52.006;4.720;2022-07-05T14:01:58;1.43;;;0.97;;
18435;SDS011;9346;52.006;4.720;2022-07-05T14:04:25;0.90;;;0.70;;
18435;SDS011;9346;52.006;4.720;2022-07-05T14:06:54;0.50;;;0.50;;
18435;SDS011;9346;52.006;4.720;2022-07-05T14:09:22;1.03;;;0.60;;
18435;SDS011;9346;52.006;4.720;2022-07-05T14:11:53;2.00;;;0.60;;
18435;SDS011;9346;52.006;4.720;2022-07-05T14:14:19;2.23;;;0.70;;
18435;SDS011;9346;52.006;4.720;2022-07-05T14:16:46;4.87;;;1.00;;
18435;SDS011;9346;52.006;4.720;2022-07-05T14:19:13;1.20;;;0.80;;
18435;SDS011;9346;52.006;4.720;2022-07-05T14:21:40;2.87;;;0.90;;
18435;SDS011;9346;52.006;4.720;2022-07-05T14:24:10;1.13;;;0.93;;
18435;SDS011;9346;52.006;4.720;2022-07-05T14:26:37;2.90;;;0.90;;
18435;SDS011;9346;52.006;4.720;2022-07-05T14:29:06;4.30;;;1.33;;
18435;SDS011;9346;52.006;4.720;2022-07-05T14:31:33;1.63;;;0.83;;
18435;SDS011;9346;52.006;4.720;2022-07-05T14:34:00;1.17;;;1.00;;
18435;SDS011;9346;52.006;4.720;2022-07-05T14:36:27;1.77;;;1.20;;
18435;SDS011;9346;52.006;4.720;2022-07-05T14:38:56;0.97;;;0.77;;
18435;SDS011;9346;52.006;4.720;2022-07-05T14:41:25;0.97;;;0.70;;
18435;SDS011;9346;52.006;4.720;2022-07-05T14:43:52;1.80;;;0.87;;
18435;SDS011;9346;52.006;4.720;2022-07-05T14:46:21;1.23;;;0.50;;
18435;SDS011;9346;52.006;4.720;2022-07-05T14:48:48;0.83;;;0.63;;
18435;SDS011;9346;52.006;4.720;2022-07-05T14:51:15;2.60;;;0.90;;
18435;SDS011;9346;52.006;4.720;2022-07-05T14:53:43;1.23;;;0.70;;
18435;SDS011;9346;52.006;4.720;2022-07-05T14:56:12;1.03;;;0.90;;
18435;SDS011;9346;52.006;4.720;2022-07-05T14:58:39;2.00;;;1.23;;
18435;SDS011;9346;52.006;4.720;2022-07-05T15:01:05;3.00;;;0.77;;
18435;SDS011;9346;52.006;4.720;2022-07-05T15:03:34;0.90;;;0.80;;
18435;SDS011;9346;52.006;4.720;2022-07-05T15:06:00;2.57;;;0.80;;
18435;SDS011;9346;52.006;4.720;2022-07-05T15:08:28;0.97;;;0.80;;
18435;SDS011;9346;52.006;4.720;2022-07-05T15:10:55;1.13;;;0.90;;
18435;SDS011;9346;52.006;4.720;2022-07-05T15:13:22;1.23;;;0.67;;
18435;SDS011;9346;52.006;4.720;2022-07-05T15:15:51;1.33;;;0.70;;
18435;SDS011;9346;52.006;4.720;2022-07-05T15:18:18;1.67;;;0.70;;
18435;SDS011;9346;52.006;4.720;2022-07-05T15:20:47;0.77;;;0.60;;
18435;SDS011;9346;52.006;4.720;2022-07-05T15:23:13;1.83;;;0.70;;
18435;SDS011;9346;52.006;4.720;2022-07-05T15:25:41;0.50;;;0.50;;